createdAt,value
2022-08-14T00:01:15.299Z,21.80
2022-08-14T00:06:28.874Z,23.80
2022-08-14T00:11:32.386Z,22.80
2022-08-14T00:16:41.749Z,21.40
2022-08-14T00:21:50.162Z,21.60
2022-08-14T00:26:54.829Z,19.60
2022-08-14T00:31:57.619Z,25.40
2022-08-14T00:37:01.840Z,21.60
2022-08-14T00:42:05.520Z,25.00
2022-08-14T00:47:10.953Z,25.20
2022-08-14T00:52:18.594Z,25.00
2022-08-14T00:57:23.048Z,25.00
2022-08-14T01:02:27.632Z,24.00
2022-08-14T01:07:47.399Z,27.40
2022-08-14T01:12:56.449Z,26.60
2022-08-14T01:18:16.682Z,29.40
2022-08-14T01:23:21.753Z,28.20
2022-08-14T01:28:47.211Z,29.00
2022-08-14T01:34:00.110Z,27.80
2022-08-14T01:39:18.704Z,26.60
2022-08-14T01:44:32.940Z,29.20
2022-08-14T01:49:40.507Z,26.80
2022-08-14T01:54:58.331Z,28.20
2022-08-14T02:00:03.228Z,27.00
2022-08-14T02:05:12.765Z,25.00
2022-08-14T02:10:17.885Z,22.40
2022-08-14T02:15:21.801Z,26.00
2022-08-14T02:20:24.596Z,26.20
2022-08-14T02:25:29.736Z,22.20
2022-08-14T02:30:34.786Z,26.60
2022-08-14T02:35:42.516Z,24.00
2022-08-14T02:40:48.769Z,24.60
2022-08-14T02:45:52.450Z,25.40
2022-08-14T02:50:55.194Z,23.20
2022-08-14T02:56:03.308Z,22.60
2022-08-14T03:01:13.006Z,25.20
2022-08-14T03:06:49.161Z,23.40
2022-08-14T03:11:45.091Z,22.20
2022-08-14T03:16:50.992Z,25.80
2022-08-14T03:21:53.790Z,24.40
2022-08-14T03:26:59.232Z,25.20
2022-08-14T03:32:02.008Z,24.60
2022-08-14T03:37:38.639Z,23.80
2022-08-14T03:42:36.146Z,26.20
2022-08-14T03:47:46.527Z,33.60
2022-08-14T03:53:00.840Z,34.00
2022-08-14T03:58:05.060Z,28.80
2022-08-14T04:03:10.912Z,27.80
2022-08-14T04:08:23.218Z,30.60
2022-08-14T04:13:36.191Z,28.00
2022-08-14T04:18:43.836Z,22.60
2022-08-14T04:23:56.946Z,27.20
2022-08-14T04:29:14.797Z,31.00
2022-08-14T04:34:24.264Z,27.40
2022-08-14T04:39:48.634Z,29.20
2022-08-14T04:45:01.847Z,32.00
2022-08-14T04:50:05.237Z,31.80
2022-08-14T04:55:11.037Z,32.20
2022-08-14T05:00:16.040Z,31.20
2022-08-14T05:05:21.943Z,30.40
2022-08-14T05:10:26.401Z,30.80
2022-08-14T05:15:39.448Z,29.40
2022-08-14T05:21:58.022Z,31.20
2022-08-14T05:26:18.102Z,28.80
2022-08-14T05:31:22.280Z,29.40
2022-08-14T05:36:27.153Z,32.00
2022-08-14T05:41:52.984Z,35.80
2022-08-14T05:46:54.275Z,31.20
2022-08-14T05:51:57.779Z,35.60
2022-08-14T05:57:01.201Z,33.20
2022-08-14T06:02:05.900Z,35.00
2022-08-14T06:07:09.543Z,36.20
2022-08-14T06:12:12.527Z,35.00
2022-08-14T06:17:46.281Z,35.80
2022-08-14T06:22:50.226Z,28.40
2022-08-14T06:27:54.732Z,28.40
2022-08-14T06:33:00.305Z,24.80
2022-08-14T06:38:04.645Z,27.20
2022-08-14T06:43:09.916Z,24.40
2022-08-14T06:48:19.311Z,28.20
2022-08-14T06:53:28.001Z,23.60
2022-08-14T06:58:32.511Z,27.00
2022-08-14T07:03:54.333Z,26.00
2022-08-14T07:08:57.068Z,22.80
2022-08-14T07:14:01.507Z,23.40
2022-08-14T07:19:09.847Z,23.60
2022-08-14T07:24:21.527Z,21.00
2022-08-14T07:29:28.706Z,26.60
2022-08-14T07:34:40.656Z,23.20
2022-08-14T07:39:44.221Z,29.40
2022-08-14T07:44:50.515Z,25.60
2022-08-14T07:50:02.422Z,24.80
2022-08-14T07:55:06.770Z,25.00
2022-08-14T08:00:31.155Z,23.80
2022-08-14T08:05:38.954Z,23.20
2022-08-14T08:11:01.793Z,22.40
2022-08-14T08:16:06.674Z,24.40
2022-08-14T08:21:12.557Z,24.60
2022-08-14T08:26:15.929Z,22.00
2022-08-14T08:31:20.492Z,21.80
2022-08-14T08:36:25.137Z,22.60
2022-08-14T08:41:41.167Z,23.00
2022-08-14T08:46:48.037Z,19.20
2022-08-14T08:52:04.212Z,21.80
2022-08-14T08:57:13.324Z,22.60
2022-08-14T09:02:19.784Z,22.60
2022-08-14T09:07:28.331Z,20.20
2022-08-14T09:12:33.442Z,22.20
2022-08-14T09:17:37.007Z,21.20
2022-08-14T09:22:42.470Z,24.80
2022-08-14T09:27:50.133Z,21.80
2022-08-14T09:33:11.721Z,21.40
2022-08-14T09:38:27.528Z,19.20
2022-08-14T09:43:34.129Z,20.00
2022-08-14T09:48:38.719Z,20.20
2022-08-14T09:54:19.490Z,20.00
2022-08-14T09:59:16.605Z,20.00
2022-08-14T10:04:22.013Z,19.00
2022-08-14T10:10:00.297Z,21.20
2022-08-14T10:15:19.472Z,18.40
2022-08-14T10:20:39.414Z,19.00
2022-08-14T10:25:50.657Z,19.00
2022-08-14T10:30:54.558Z,17.80
2022-08-14T10:36:00.569Z,16.20
2022-08-14T10:41:15.388Z,20.20
2022-08-14T10:46:58.922Z,18.40
2022-08-14T10:51:42.781Z,18.20
2022-08-14T10:56:46.892Z,18.60
2022-08-14T11:01:49.716Z,18.40
2022-08-14T11:06:54.331Z,18.20
2022-08-14T11:12:44.130Z,18.20
2022-08-14T11:17:21.819Z,17.80
2022-08-14T11:22:56.759Z,19.00
2022-08-14T11:27:56.326Z,17.80
2022-08-14T11:32:59.543Z,16.20
2022-08-14T11:38:04.771Z,22.60
2022-08-14T11:43:10.131Z,14.20
2022-08-14T11:48:59.161Z,18.80
2022-08-14T11:53:44.784Z,14.50
2022-08-14T11:58:54.122Z,16.80
2022-08-14T12:03:59.061Z,15.20
2022-08-14T12:09:04.502Z,18.60
2022-08-14T12:14:34.943Z,16.80
2022-08-14T12:19:45.843Z,15.80
2022-08-14T12:24:54.491Z,19.20
2022-08-14T12:29:59.909Z,14.20
2022-08-14T12:35:03.439Z,15.80
2022-08-14T12:40:11.413Z,19.60
2022-08-14T12:45:17.184Z,18.40
2022-08-14T12:50:20.658Z,17.00
2022-08-14T12:55:32.637Z,13.20
2022-08-14T13:01:16.362Z,13.40
2022-08-14T13:06:15.109Z,16.40
2022-08-14T13:11:19.558Z,21.40
2022-08-14T13:16:33.793Z,16.80
2022-08-14T13:21:58.955Z,13.60
2022-08-14T13:27:05.411Z,15.00
2022-08-14T13:32:10.267Z,17.00
2022-08-14T13:37:15.299Z,13.00
2022-08-14T13:42:21.949Z,14.20
2022-08-14T13:47:29.585Z,15.00
2022-08-14T13:52:51.529Z,15.00
2022-08-14T13:58:04.467Z,12.00
2022-08-14T14:03:10.382Z,13.60
2022-08-14T14:08:18.764Z,14.60
2022-08-14T14:13:44.629Z,15.20
2022-08-14T14:18:52.350Z,15.80
2022-08-14T14:23:56.272Z,14.00
2022-08-14T14:29:01.597Z,14.80
2022-08-14T14:34:07.749Z,12.40
2022-08-14T14:39:30.008Z,13.25
2022-08-14T14:44:40.259Z,15.80
2022-08-14T14:49:55.073Z,11.80
2022-08-14T14:54:59.186Z,13.40
2022-08-14T15:00:02.691Z,15.50
2022-08-14T15:05:08.318Z,14.60
2022-08-14T15:10:27.055Z,12.20
2022-08-14T15:15:37.392Z,13.00
2022-08-14T15:20:42.260Z,13.00
2022-08-14T15:25:52.388Z,13.80
2022-08-14T15:30:58.813Z,13.60
2022-08-14T15:36:05.049Z,12.00
2022-08-14T15:41:33.714Z,15.80
2022-08-14T15:46:45.639Z,13.40
2022-08-14T15:51:50.895Z,13.00
2022-08-14T15:56:58.494Z,13.80
2022-08-14T16:02:02.673Z,12.40
2022-08-14T16:07:08.858Z,10.00
2022-08-14T16:12:12.131Z,10.00
2022-08-14T16:17:18.336Z,12.25
2022-08-14T16:22:59.080Z,12.00
2022-08-14T16:27:45.888Z,10.50
2022-08-14T16:32:55.437Z,8.60
2022-08-14T16:43:26.069Z,10.00
2022-08-14T16:48:57.612Z,8.75
2022-08-14T16:53:55.241Z,10.25
2022-08-14T16:59:10.035Z,9.25
2022-08-14T17:04:25.091Z,12.00
2022-08-14T17:09:36.428Z,11.25
2022-08-14T17:14:57.486Z,11.00
2022-08-14T17:20:02.067Z,9.25
2022-08-14T17:25:13.013Z,10.50
2022-08-14T17:30:31.908Z,10.25
2022-08-14T17:35:57.473Z,9.00
2022-08-14T17:41:19.042Z,9.75
2022-08-14T17:46:35.622Z,9.75
2022-08-14T17:52:01.541Z,7.75
2022-08-14T17:57:13.101Z,9.00
2022-08-14T18:02:18.280Z,8.25
2022-08-14T18:08:00.407Z,10.25
2022-08-14T18:12:48.736Z,9.00
2022-08-14T18:17:54.068Z,7.50
2022-08-14T18:22:58.140Z,8.25
2022-08-14T18:28:10.681Z,14.75
2022-08-14T18:33:23.115Z,14.20
2022-08-14T18:38:55.312Z,9.00
2022-08-14T18:43:59.597Z,13.50
2022-08-14T18:49:16.476Z,10.50
2022-08-14T18:54:33.239Z,11.75
2022-08-14T18:59:43.254Z,11.50
2022-08-14T19:04:46.332Z,13.25
2022-08-14T19:09:54.482Z,13.25
2022-08-14T19:15:08.664Z,9.25
2022-08-14T19:20:12.908Z,11.50
2022-08-14T19:25:48.866Z,12.00
2022-08-14T19:31:37.109Z,10.40
2022-08-14T19:37:05.030Z,12.60
2022-08-14T19:42:10.503Z,13.50
2022-08-14T19:47:16.581Z,17.60
2022-08-14T19:52:22.581Z,19.60
2022-08-14T19:57:29.121Z,20.20
2022-08-14T20:02:32.169Z,17.00
2022-08-14T20:07:59.327Z,20.40
2022-08-14T20:13:07.721Z,21.80
2022-08-14T20:18:22.169Z,19.40
2022-08-14T20:23:38.126Z,17.40
2022-08-14T20:28:51.511Z,22.40
2022-08-14T20:34:05.993Z,22.40
2022-08-14T20:39:15.724Z,23.40
2022-08-14T20:44:38.724Z,23.60
2022-08-14T20:49:41.584Z,23.40
2022-08-14T20:54:50.860Z,21.00
2022-08-14T20:59:56.646Z,20.80
2022-08-14T21:05:04.577Z,21.80
2022-08-14T21:10:34.042Z,21.40
2022-08-14T21:15:39.830Z,22.20
2022-08-14T21:20:45.544Z,21.60
2022-08-14T21:25:48.977Z,24.40
2022-08-14T21:30:55.100Z,22.40
2022-08-14T21:36:07.833Z,25.00
2022-08-14T21:41:49.999Z,26.20
2022-08-14T21:46:47.573Z,23.00
2022-08-14T21:52:00.008Z,27.00
2022-08-14T21:58:04.090Z,23.20
2022-08-14T22:02:51.768Z,28.00
2022-08-14T22:07:59.359Z,19.60
2022-08-14T22:13:05.564Z,22.60
2022-08-14T22:18:12.242Z,25.40
2022-08-14T22:23:25.852Z,23.40
2022-08-14T22:28:32.678Z,24.00
2022-08-14T22:33:36.227Z,19.60
2022-08-14T22:38:49.603Z,24.00
2022-08-14T22:43:56.515Z,22.20
2022-08-14T22:49:15.426Z,24.20
2022-08-14T22:54:52.244Z,21.40
2022-08-14T22:59:50.045Z,25.00
2022-08-14T23:04:55.390Z,24.40
2022-08-14T23:10:32.284Z,25.80
2022-08-14T23:15:28.938Z,24.60
2022-08-14T23:20:36.199Z,24.80
2022-08-14T23:25:57.919Z,22.00
2022-08-14T23:31:05.580Z,23.60
2022-08-14T23:36:28.282Z,25.80
2022-08-14T23:41:46.954Z,22.40
2022-08-14T23:47:03.521Z,20.20
2022-08-14T23:52:57.379Z,24.20
2022-08-14T23:57:38.029Z,28.20
